Time,TemperatureF,DewpointF,PressureIn,WindDirection,WindDirectionDegrees,WindSpeedMPH,WindSpeedGustMPH,Humidity,HourlyPrecipIn,Conditions,Clouds,dailyrainin,SoftwareType,DateUTC
2013-12-11 00:01:00,27.6,21.6,30.40,WNW,287,0.0,0.0,78,0.00,,,0.24,Wunderground v.1.15,2013-12-11 05:01:00,
2013-12-11 00:02:00,27.6,21.9,30.40,WNW,287,0.0,0.0,79,0.00,,,0.24,Wunderground v.1.15,2013-12-11 05:02:00,
2013-12-11 00:04:00,27.6,21.6,30.40,WNW,287,0.0,0.0,78,0.00,,,0.24,Wunderground v.1.15,2013-12-11 05:04:00,
2013-12-11 00:08:00,27.8,21.8,30.41,WNW,287,0.0,0.0,78,0.00,,,0.24,Wunderground v.1.15,2013-12-11 05:08:00,
2013-12-11 00:09:00,27.9,21.9,30.41,WNW,287,0.0,0.0,78,0.00,,,0.24,Wunderground v.1.15,2013-12-11 05:09:00,
2013-12-11 00:15:00,27.9,21.9,30.41,WNW,287,0.0,0.0,78,0.00,,,0.24,Wunderground v.1.15,2013-12-11 05:15:00,
2013-12-11 00:20:00,27.8,21.8,30.41,WNW,287,0.0,0.0,78,0.00,,,0.24,Wunderground v.1.15,2013-12-11 05:20:00,
2013-12-11 00:21:00,27.8,21.8,30.41,WNW,287,0.0,0.0,78,0.00,,,0.24,Wunderground v.1.15,2013-12-11 05:21:00,
2013-12-11 00:27:00,27.8,22.1,30.42,WNW,287,0.0,0.0,79,0.00,,,0.24,Wunderground v.1.15,2013-12-11 05:27:00,
2013-12-11 00:32:00,27.8,21.8,30.42,WNW,287,0.0,0.0,78,0.00,,,0.24,Wunderground v.1.15,2013-12-11 05:32:00,
2013-12-11 00:38:00,27.9,21.9,30.42,WNW,287,0.0,0.0,78,0.00,,,0.00,Wunderground v.1.15,2013-12-11 05:38:00,
2013-12-11 00:43:00,27.9,21.9,30.42,WNW,287,0.0,0.0,78,0.00,,,0.00,Wunderground v.1.15,2013-12-11 05:43:00,
2013-12-11 00:48:00,27.8,22.1,30.42,WNW,287,0.0,0.0,79,0.00,,,0.00,Wunderground v.1.15,2013-12-11 05:48:00,
2013-12-11 00:54:00,27.8,22.1,30.42,WNW,287,0.0,0.0,79,0.00,,,0.00,Wunderground v.1.15,2013-12-11 05:54:00,
2013-12-11 00:59:00,27.6,22.2,30.42,WNW,287,0.0,0.0,80,0.00,,,0.00,Wunderground v.1.15,2013-12-11 05:59:00,
2013-12-11 01:05:00,27.6,22.2,30.42,WNW,287,0.0,0.0,80,0.00,,,0.00,Wunderground v.1.15,2013-12-11 06:05:00,
2013-12-11 01:11:00,27.6,21.9,30.42,WNW,287,0.0,0.0,79,0.00,,,0.00,Wunderground v.1.15,2013-12-11 06:11:00,
2013-12-11 01:16:00,27.6,21.9,30.42,WNW,287,0.0,0.0,79,0.00,,,0.00,Wunderground v.1.15,2013-12-11 06:16:00,
2013-12-11 01:22:00,27.8,22.1,30.42,WNW,287,0.0,0.0,79,0.00,,,0.00,Wunderground v.1.15,2013-12-11 06:22:00,
2013-12-11 01:27:00,27.8,21.8,30.42,WNW,287,0.0,0.0,78,0.00,,,0.00,Wunderground v.1.15,2013-12-11 06:27:00,
2013-12-11 01:32:00,27.8,22.1,30.42,WNW,287,0.0,0.0,79,0.00,,,0.00,Wunderground v.1.15,2013-12-11 06:32:00,
2013-12-11 01:38:00,27.8,21.8,30.42,WNW,287,0.0,0.0,78,0.00,,,0.00,Wunderground v.1.15,2013-12-11 06:38:00,
2013-12-11 01:43:00,27.9,21.9,30.42,WNW,287,0.0,0.0,78,0.00,,,0.00,Wunderground v.1.15,2013-12-11 06:43:00,
2013-12-11 01:49:00,27.9,21.6,30.42,WNW,287,0.0,0.0,77,0.00,,,0.00,Wunderground v.1.15,2013-12-11 06:49:00,
2013-12-11 01:54:00,28.1,21.8,30.42,WNW,287,0.0,0.0,77,0.00,,,0.00,Wunderground v.1.15,2013-12-11 06:54:00,
2013-12-11 02:00:00,27.9,21.6,30.42,WNW,287,0.0,0.0,77,0.00,,,0.00,Wunderground v.1.15,2013-12-11 07:00:00,
2013-12-11 02:06:00,27.6,21.3,30.42,WNW,287,0.0,0.0,77,0.00,,,0.00,Wunderground v.1.15,2013-12-11 07:06:00,
2013-12-11 02:11:00,27.5,21.5,30.43,WNW,287,0.0,0.0,78,0.00,,,0.00,Wunderground v.1.15,2013-12-11 07:11:00,
2013-12-11 02:16:00,27.6,21.6,30.43,WNW,287,0.0,0.0,78,0.00,,,0.00,Wunderground v.1.15,2013-12-11 07:16:00,
2013-12-11 02:21:00,27.6,21.6,30.43,WNW,287,0.0,0.0,78,0.00,,,0.00,Wunderground v.1.15,2013-12-11 07:21:00,
2013-12-11 02:27:00,27.8,21.8,30.43,WNW,287,0.0,0.0,78,0.00,,,0.00,Wunderground v.1.15,2013-12-11 07:27:00,
2013-12-11 02:33:00,27.9,21.9,30.43,WNW,287,0.0,0.0,78,0.00,,,0.00,Wunderground v.1.15,2013-12-11 07:33:00,
2013-12-11 02:38:00,27.9,21.9,30.43,WNW,287,0.0,0.0,78,0.00,,,0.00,Wunderground v.1.15,2013-12-11 07:38:00,
2013-12-11 02:43:00,27.8,21.8,30.43,WNW,287,0.0,0.0,78,0.00,,,0.00,Wunderground v.1.15,2013-12-11 07:43:00,
2013-12-11 02:49:00,27.9,21.6,30.43,WNW,287,0.0,0.0,77,0.00,,,0.00,Wunderground v.1.15,2013-12-11 07:49:00,
2013-12-11 02:55:00,27.8,21.8,30.43,WNW,287,0.0,1.0,78,0.00,,,0.00,Wunderground v.1.15,2013-12-11 07:55:00,
2013-12-11 03:00:00,27.6,21.0,30.43,WNW,287,0.0,1.0,76,0.00,,,0.00,Wunderground v.1.15,2013-12-11 08:00:00,
2013-12-11 03:05:00,27.6,20.4,30.43,WNW,287,0.0,1.0,74,0.00,,,0.00,Wunderground v.1.15,2013-12-11 08:05:00,
2013-12-11 03:11:00,27.8,19.9,30.43,WNW,287,0.0,0.0,72,0.00,,,0.00,Wunderground v.1.15,2013-12-11 08:11:00,
2013-12-11 03:16:00,27.8,18.9,30.43,WNW,287,0.0,2.0,69,0.00,,,0.00,Wunderground v.1.15,2013-12-11 08:16:00,
2013-12-11 03:22:00,27.9,19.0,30.43,WNW,287,0.0,1.0,69,0.00,,,0.00,Wunderground v.1.15,2013-12-11 08:22:00,
2013-12-11 03:27:00,27.9,17.6,30.43,WNW,287,0.0,1.0,65,0.00,,,0.00,Wunderground v.1.15,2013-12-11 08:27:00,
2013-12-11 03:33:00,28.2,17.2,30.43,WNW,287,0.0,1.0,63,0.00,,,0.00,Wunderground v.1.15,2013-12-11 08:33:00,
2013-12-11 03:38:00,28.4,17.8,30.44,WNW,287,0.0,1.0,64,0.00,,,0.00,Wunderground v.1.15,2013-12-11 08:38:00,
2013-12-11 03:43:00,28.5,17.5,30.44,WNW,287,0.0,0.0,63,0.00,,,0.00,Wunderground v.1.15,2013-12-11 08:43:00,
2013-12-11 03:49:00,28.7,17.3,30.44,WNW,287,0.0,0.0,62,0.00,,,0.00,Wunderground v.1.15,2013-12-11 08:49:00,
2013-12-11 03:54:00,28.7,16.9,30.44,WNW,287,0.0,0.0,61,0.00,,,0.00,Wunderground v.1.15,2013-12-11 08:54:00,
2013-12-11 04:00:00,28.7,17.3,30.44,WNW,287,0.0,0.0,62,0.00,,,0.00,Wunderground v.1.15,2013-12-11 09:00:00,
2013-12-11 04:06:00,28.5,16.4,30.44,WNW,287,0.0,0.0,60,0.00,,,0.00,Wunderground v.1.15,2013-12-11 09:06:00,
2013-12-11 04:11:00,28.5,16.7,30.44,WNW,287,0.0,0.0,61,0.00,,,0.00,Wunderground v.1.15,2013-12-11 09:11:00,
2013-12-11 04:16:00,28.4,17.0,30.44,WNW,287,0.0,0.0,62,0.00,,,0.00,Wunderground v.1.15,2013-12-11 09:16:00,
2013-12-11 04:22:00,28.1,16.0,30.44,WNW,287,0.0,0.0,60,0.00,,,0.00,Wunderground v.1.15,2013-12-11 09:22:00,
2013-12-11 04:27:00,28.2,16.1,30.44,WNW,287,0.0,0.0,60,0.00,,,0.00,Wunderground v.1.15,2013-12-11 09:27:00,
2013-12-11 04:33:00,28.4,15.1,30.44,WNW,287,0.0,0.0,57,0.00,,,0.00,Wunderground v.1.15,2013-12-11 09:33:00,
2013-12-11 04:38:00,28.5,15.6,30.43,WNW,287,0.0,0.0,58,0.00,,,0.00,Wunderground v.1.15,2013-12-11 09:38:00,
2013-12-11 04:43:00,28.5,15.6,30.43,WNW,287,0.0,0.0,58,0.00,,,0.00,Wunderground v.1.15,2013-12-11 09:43:00,
2013-12-11 04:49:00,28.4,15.5,30.43,WNW,287,0.0,0.0,58,0.00,,,0.00,Wunderground v.1.15,2013-12-11 09:49:00,
2013-12-11 04:54:00,28.4,15.5,30.44,WNW,287,0.0,0.0,58,0.00,,,0.00,Wunderground v.1.15,2013-12-11 09:54:00,
2013-12-11 05:00:00,28.2,14.5,30.44,WNW,287,0.0,0.0,56,0.00,,,0.00,Wunderground v.1.15,2013-12-11 10:00:00,
2013-12-11 05:05:00,28.2,15.3,30.44,WNW,287,0.0,0.0,58,0.00,,,0.00,Wunderground v.1.15,2013-12-11 10:05:00,
2013-12-11 05:10:00,28.2,14.5,30.44,WNW,287,0.0,0.0,56,0.00,,,0.00,Wunderground v.1.15,2013-12-11 10:10:00,
2013-12-11 05:16:00,28.4,14.3,30.44,WNW,287,0.0,0.0,55,0.00,,,0.00,Wunderground v.1.15,2013-12-11 10:16:00,
2013-12-11 05:21:00,28.4,14.3,30.44,WNW,287,0.0,0.0,55,0.00,,,0.00,Wunderground v.1.15,2013-12-11 10:21:00,
2013-12-11 05:27:00,28.4,14.3,30.44,WNW,287,0.0,0.0,55,0.00,,,0.00,Wunderground v.1.15,2013-12-11 10:27:00,
2013-12-11 05:32:00,28.5,13.9,30.44,WNW,287,0.0,0.0,54,0.00,,,0.00,Wunderground v.1.15,2013-12-11 10:32:00,
2013-12-11 05:38:00,28.5,14.4,30.44,WNW,287,0.0,0.0,55,0.00,,,0.00,Wunderground v.1.15,2013-12-11 10:38:00,
2013-12-11 05:43:00,28.2,14.9,30.44,WNW,287,0.0,0.0,57,0.00,,,0.00,Wunderground v.1.15,2013-12-11 10:43:00,
2013-12-11 05:49:00,27.9,14.6,30.44,WNW,287,0.0,0.0,57,0.00,,,0.00,Wunderground v.1.15,2013-12-11 10:49:00,
2013-12-11 05:54:00,27.9,13.8,30.44,WNW,287,0.0,0.0,55,0.00,,,0.00,Wunderground v.1.15,2013-12-11 10:54:00,
2013-12-11 06:00:00,27.9,14.2,30.44,WNW,287,0.0,0.0,56,0.00,,,0.00,Wunderground v.1.15,2013-12-11 11:00:00,
2013-12-11 06:05:00,28.1,14.4,30.44,WNW,287,0.0,0.0,56,0.00,,,0.00,Wunderground v.1.15,2013-12-11 11:05:00,
2013-12-11 06:11:00,28.1,14.4,30.45,WNW,287,0.0,0.0,56,0.00,,,0.00,Wunderground v.1.15,2013-12-11 11:11:00,
2013-12-11 06:16:00,28.1,14.4,30.45,WNW,287,0.0,0.0,56,0.00,,,0.00,Wunderground v.1.15,2013-12-11 11:16:00,
2013-12-11 06:22:00,27.9,14.6,30.46,WNW,287,0.0,0.0,57,0.00,,,0.00,Wunderground v.1.15,2013-12-11 11:22:00,
2013-12-11 06:27:00,27.8,14.1,30.46,WNW,287,0.0,0.0,56,0.00,,,0.00,Wunderground v.1.15,2013-12-11 11:27:00,
2013-12-11 06:33:00,27.6,15.1,30.46,WNW,287,0.0,0.0,59,0.00,,,0.00,Wunderground v.1.15,2013-12-11 11:33:00,
2013-12-11 06:38:00,27.6,14.3,30.47,WNW,287,0.0,0.0,57,0.00,,,0.00,Wunderground v.1.15,2013-12-11 11:38:00,
2013-12-11 06:44:00,27.6,14.7,30.47,WNW,287,0.0,0.0,58,0.00,,,0.00,Wunderground v.1.15,2013-12-11 11:44:00,
2013-12-11 06:49:00,27.6,13.9,30.47,WNW,287,0.0,0.0,56,0.00,,,0.00,Wunderground v.1.15,2013-12-11 11:49:00,
2013-12-11 06:55:00,27.6,13.9,30.48,WNW,287,0.0,0.0,56,0.00,,,0.00,Wunderground v.1.15,2013-12-11 11:55:00,
2013-12-11 07:00:00,27.5,14.2,30.48,WNW,287,0.0,0.0,57,0.00,,,0.00,Wunderground v.1.15,2013-12-11 12:00:00,
2013-12-11 07:06:00,27.2,14.4,30.48,WNW,287,0.0,0.0,58,0.00,,,0.00,Wunderground v.1.15,2013-12-11 12:06:00,
2013-12-11 07:11:00,27.2,14.8,30.48,WNW,287,0.0,0.0,59,0.00,,,0.00,Wunderground v.1.15,2013-12-11 12:11:00,
2013-12-11 07:16:00,27.0,14.9,30.48,WNW,287,0.0,0.0,60,0.00,,,0.00,Wunderground v.1.15,2013-12-11 12:16:00,
2013-12-11 07:22:00,26.9,14.5,30.48,WNW,287,0.0,0.0,59,0.00,,,0.00,Wunderground v.1.15,2013-12-11 12:22:00,
2013-12-11 07:28:00,26.9,14.9,30.48,WNW,287,0.0,0.0,60,0.00,,,0.00,Wunderground v.1.15,2013-12-11 12:28:00,
2013-12-11 07:33:00,26.9,14.9,30.48,WNW,287,0.0,0.0,60,0.00,,,0.00,Wunderground v.1.15,2013-12-11 12:33:00,
2013-12-11 07:38:00,26.9,14.9,30.48,WNW,287,0.0,0.0,60,0.00,,,0.00,Wunderground v.1.15,2013-12-11 12:38:00,
2013-12-11 07:44:00,26.9,15.2,30.48,WNW,287,0.0,0.0,61,0.00,,,0.00,Wunderground v.1.15,2013-12-11 12:44:00,
2013-12-11 07:49:00,26.9,15.2,30.48,WNW,287,0.0,0.0,61,0.00,,,0.00,Wunderground v.1.15,2013-12-11 12:49:00,
2013-12-11 07:55:00,27.2,15.9,30.48,WNW,287,0.0,0.0,62,0.00,,,0.00,Wunderground v.1.15,2013-12-11 12:55:00,
2013-12-11 08:00:00,27.3,15.2,30.48,WNW,287,0.0,0.0,60,0.00,,,0.00,Wunderground v.1.15,2013-12-11 13:00:00,
2013-12-11 08:06:00,27.8,15.7,30.48,WNW,287,0.0,0.0,60,0.00,,,0.00,Wunderground v.1.15,2013-12-11 13:06:00,
2013-12-11 08:11:00,28.5,16.7,30.48,WNW,287,0.0,0.0,61,0.00,,,0.00,Wunderground v.1.15,2013-12-11 13:11:00,
2013-12-11 08:17:00,29.7,17.9,30.48,WNW,287,0.0,0.0,61,0.00,,,0.00,Wunderground v.1.15,2013-12-11 13:17:00,
2013-12-11 08:23:00,29.5,18.1,30.47,WNW,287,0.0,0.0,62,0.00,,,0.00,Wunderground v.1.15,2013-12-11 13:23:00,
2013-12-11 08:28:00,29.4,19.1,30.47,WNW,287,0.0,0.0,65,0.00,,,0.00,Wunderground v.1.15,2013-12-11 13:28:00,
2013-12-11 08:34:00,29.3,20.0,30.47,WNW,287,0.0,2.0,68,0.00,,,0.00,Wunderground v.1.15,2013-12-11 13:34:00,
2013-12-11 08:39:00,29.5,20.9,30.48,WNW,287,0.0,2.0,70,0.00,,,0.00,Wunderground v.1.15,2013-12-11 13:39:00,
2013-12-11 08:45:00,30.0,21.4,30.48,WNW,287,0.0,0.0,70,0.00,,,0.00,Wunderground v.1.15,2013-12-11 13:45:00,
2013-12-11 08:50:00,30.1,22.2,30.48,WNW,287,0.0,0.0,72,0.00,,,0.00,Wunderground v.1.15,2013-12-11 13:50:00,
2013-12-11 08:56:00,31.5,22.8,30.49,WNW,287,0.0,0.0,70,0.00,,,0.00,Wunderground v.1.15,2013-12-11 13:56:00,
2013-12-11 09:01:00,32.1,23.4,30.49,WNW,287,0.0,0.0,70,0.00,,,0.00,Wunderground v.1.15,2013-12-11 14:01:00,
2013-12-11 09:06:00,32.4,23.0,30.49,WNW,287,0.0,0.0,68,0.00,,,0.00,Wunderground v.1.15,2013-12-11 14:06:00,
2013-12-11 09:12:00,33.2,23.1,30.49,WNW,287,0.0,0.0,66,0.00,,,0.00,Wunderground v.1.15,2013-12-11 14:12:00,
2013-12-11 09:18:00,33.2,21.6,30.49,WSW,253,0.0,0.0,62,0.00,,,0.00,Wunderground v.1.15,2013-12-11 14:18:00,
2013-12-11 09:23:00,33.1,21.1,30.49,West,276,0.0,0.0,61,0.00,,,0.00,Wunderground v.1.15,2013-12-11 14:23:00,
2013-12-11 09:28:00,33.8,23.3,30.49,West,276,0.0,1.0,65,0.00,,,0.00,Wunderground v.1.15,2013-12-11 14:28:00,
2013-12-11 09:34:00,34.7,22.2,30.49,West,278,0.0,0.0,60,0.00,,,0.00,Wunderground v.1.15,2013-12-11 14:34:00,
2013-12-11 09:40:00,34.7,21.8,30.50,West,278,0.0,0.0,59,0.00,,,0.00,Wunderground v.1.15,2013-12-11 14:40:00,
2013-12-11 09:45:00,34.4,20.7,30.50,WNW,297,1.0,3.0,57,0.00,,,0.00,Wunderground v.1.15,2013-12-11 14:45:00,
2013-12-11 09:51:00,34.9,21.6,30.50,WNW,297,1.0,3.0,58,0.00,,,0.00,Wunderground v.1.15,2013-12-11 14:51:00,
2013-12-11 09:57:00,35.5,23.0,30.50,WNW,297,1.0,3.0,60,0.00,,,0.00,Wunderground v.1.15,2013-12-11 14:57:00,
2013-12-11 10:03:00,36.0,21.4,30.50,NNW,333,1.0,1.0,55,0.00,,,0.00,Wunderground v.1.15,2013-12-11 15:03:00,
2013-12-11 10:08:00,35.9,21.3,30.50,NNW,333,0.0,1.0,55,0.00,,,0.00,Wunderground v.1.15,2013-12-11 15:08:00,
2013-12-11 10:13:00,35.9,21.3,30.50,NNW,333,0.0,0.0,55,0.00,,,0.00,Wunderground v.1.15,2013-12-11 15:13:00,
2013-12-11 10:19:00,36.0,18.2,30.50,NNW,334,0.0,2.0,48,0.00,,,0.00,Wunderground v.1.15,2013-12-11 15:19:00,
2013-12-11 10:25:00,36.0,17.7,30.50,NNW,345,1.0,2.0,47,0.00,,,0.00,Wunderground v.1.15,2013-12-11 15:25:00,
2013-12-11 10:30:00,35.9,19.0,30.50,NNW,345,0.0,0.0,50,0.00,,,0.00,Wunderground v.1.15,2013-12-11 15:30:00,
2013-12-11 10:35:00,36.3,21.7,30.50,NNW,345,0.0,0.0,55,0.00,,,0.00,Wunderground v.1.15,2013-12-11 15:35:00,
2013-12-11 10:41:00,36.9,23.5,30.50,NNW,345,0.0,0.0,58,0.00,,,0.00,Wunderground v.1.15,2013-12-11 15:41:00,
2013-12-11 10:47:00,36.2,22.8,30.50,NNW,345,0.0,1.0,58,0.00,,,0.00,Wunderground v.1.15,2013-12-11 15:47:00,
2013-12-11 10:52:00,36.0,22.2,30.49,NNW,345,0.0,0.0,57,0.00,,,0.00,Wunderground v.1.15,2013-12-11 15:52:00,
2013-12-11 10:57:00,36.6,20.6,30.49,NNW,345,0.0,0.0,52,0.00,,,0.00,Wunderground v.1.15,2013-12-11 15:57:00,
2013-12-11 11:03:00,37.9,24.0,30.49,NNW,345,0.0,0.0,57,0.00,,,0.00,Wunderground v.1.15,2013-12-11 16:03:00,
2013-12-11 11:08:00,37.8,23.1,30.49,NNE,30,1.0,4.0,55,0.00,,,0.00,Wunderground v.1.15,2013-12-11 16:08:00,
2013-12-11 11:14:00,37.5,22.8,30.49,NE,46,1.0,4.0,55,0.00,,,0.00,Wunderground v.1.15,2013-12-11 16:14:00,
2013-12-11 11:19:00,37.9,24.0,30.49,NE,46,1.0,4.0,57,0.00,,,0.00,Wunderground v.1.15,2013-12-11 16:19:00,
2013-12-11 11:25:00,38.5,23.7,30.48,NE,47,1.0,3.0,55,0.00,,,0.00,Wunderground v.1.15,2013-12-11 16:25:00,
2013-12-11 11:30:00,38.0,22.8,30.48,East,94,2.0,2.0,54,0.00,,,0.00,Wunderground v.1.15,2013-12-11 16:30:00,
2013-12-11 11:36:00,37.9,22.7,30.48,East,94,2.0,4.0,54,0.00,,,0.00,Wunderground v.1.15,2013-12-11 16:36:00,
2013-12-11 11:41:00,38.5,23.3,30.47,East,94,1.0,1.0,54,0.00,,,0.00,Wunderground v.1.15,2013-12-11 16:41:00,
2013-12-11 11:47:00,38.8,22.2,30.47,East,94,0.0,3.0,51,0.00,,,0.00,Wunderground v.1.15,2013-12-11 16:47:00,
2013-12-11 11:52:00,39.3,21.7,30.47,East,94,0.0,0.0,49,0.00,,,0.00,Wunderground v.1.15,2013-12-11 16:52:00,
2013-12-11 11:58:00,39.5,20.9,30.47,East,94,0.0,3.0,47,0.00,,,0.00,Wunderground v.1.15,2013-12-11 16:58:00,
2013-12-11 12:03:00,39.5,18.8,30.47,East,94,0.0,0.0,43,0.00,,,0.00,Wunderground v.1.15,2013-12-11 17:03:00,
2013-12-11 12:09:00,40.1,20.4,30.45,East,95,0.0,6.0,45,0.00,,,0.00,Wunderground v.1.15,2013-12-11 17:09:00,
2013-12-11 12:15:00,39.8,19.1,30.45,East,97,1.0,5.0,43,0.00,,,0.00,Wunderground v.1.15,2013-12-11 17:15:00,
2013-12-11 12:20:00,40.1,19.9,30.45,East,97,1.0,1.0,44,0.00,,,0.00,Wunderground v.1.15,2013-12-11 17:20:00,
2013-12-11 12:26:00,40.2,20.0,30.44,East,100,1.0,5.0,44,0.00,,,0.00,Wunderground v.1.15,2013-12-11 17:26:00,
2013-12-11 12:32:00,40.5,20.8,30.44,ESE,103,1.0,3.0,45,0.00,,,0.00,Wunderground v.1.15,2013-12-11 17:32:00,
2013-12-11 12:37:00,40.8,21.1,30.43,ESE,103,1.0,3.0,45,0.00,,,0.00,Wunderground v.1.15,2013-12-11 17:37:00,
2013-12-11 12:43:00,40.9,20.6,30.43,ESE,111,1.0,6.0,44,0.00,,,0.00,Wunderground v.1.15,2013-12-11 17:43:00,
2013-12-11 12:48:00,40.6,22.9,30.43,ESE,114,1.0,6.0,49,0.00,,,0.00,Wunderground v.1.15,2013-12-11 17:48:00,
2013-12-11 12:54:00,41.2,23.5,30.42,East,86,2.0,6.0,49,0.00,,,0.00,Wunderground v.1.15,2013-12-11 17:54:00,
2013-12-11 12:59:00,41.2,22.0,30.42,East,82,2.0,6.0,46,0.00,,,0.00,Wunderground v.1.15,2013-12-11 17:59:00,
2013-12-11 13:05:00,41.8,23.0,30.42,East,81,1.0,3.0,47,0.00,,,0.00,Wunderground v.1.15,2013-12-11 18:05:00,
2013-12-11 13:10:00,41.3,23.1,30.42,SE,128,1.0,1.0,48,0.00,,,0.00,Wunderground v.1.15,2013-12-11 18:10:00,
2013-12-11 13:16:00,41.8,24.5,30.42,ESE,117,1.0,5.0,50,0.00,,,0.00,Wunderground v.1.15,2013-12-11 18:16:00,
2013-12-11 13:21:00,41.5,23.2,30.42,East,96,2.0,2.0,48,0.00,,,0.00,Wunderground v.1.15,2013-12-11 18:21:00,
2013-12-11 13:26:00,41.8,24.0,30.41,East,96,1.0,2.0,49,0.00,,,0.00,Wunderground v.1.15,2013-12-11 18:26:00,
2013-12-11 13:32:00,42.1,23.8,30.41,East,96,0.0,0.0,48,0.00,,,0.00,Wunderground v.1.15,2013-12-11 18:32:00,
2013-12-11 13:37:00,42.2,24.9,30.40,East,96,0.0,1.0,50,0.00,,,0.00,Wunderground v.1.15,2013-12-11 18:37:00,
2013-12-11 13:43:00,42.1,24.8,30.40,East,85,2.0,4.0,50,0.00,,,0.00,Wunderground v.1.15,2013-12-11 18:43:00,
2013-12-11 13:48:00,42.6,25.7,30.40,East,86,2.0,4.0,51,0.00,,,0.00,Wunderground v.1.15,2013-12-11 18:48:00,
2013-12-11 13:54:00,42.5,25.6,30.40,East,101,1.0,3.0,51,0.00,,,0.00,Wunderground v.1.15,2013-12-11 18:54:00,
2013-12-11 13:59:00,42.6,25.7,30.40,ESE,117,1.0,6.0,51,0.00,,,0.00,Wunderground v.1.15,2013-12-11 18:59:00,
2013-12-11 14:05:00,42.6,25.7,30.40,ESE,103,1.0,4.0,51,0.00,,,0.00,Wunderground v.1.15,2013-12-11 19:05:00,
2013-12-11 14:10:00,42.6,26.2,30.40,SE,125,1.0,1.0,52,0.00,,,0.00,Wunderground v.1.15,2013-12-11 19:10:00,
2013-12-11 14:16:00,43.1,26.2,30.40,East,94,1.0,5.0,51,0.00,,,0.00,Wunderground v.1.15,2013-12-11 19:16:00,
2013-12-11 14:21:00,42.9,26.5,30.40,ESE,104,1.0,5.0,52,0.00,,,0.00,Wunderground v.1.15,2013-12-11 19:21:00,
2013-12-11 14:27:00,42.6,26.2,30.39,ESE,113,2.0,5.0,52,0.00,,,0.00,Wunderground v.1.15,2013-12-11 19:27:00,
2013-12-11 14:32:00,42.9,26.0,30.39,ESE,113,1.0,3.0,51,0.00,,,0.00,Wunderground v.1.15,2013-12-11 19:32:00,
2013-12-11 14:38:00,43.2,26.7,30.39,East,100,1.0,6.0,52,0.00,,,0.00,Wunderground v.1.15,2013-12-11 19:38:00,
2013-12-11 14:43:00,43.5,26.1,30.39,East,96,1.0,1.0,50,0.00,,,0.00,Wunderground v.1.15,2013-12-11 19:43:00,
2013-12-11 14:49:00,43.3,24.4,30.39,ESE,105,1.0,2.0,47,0.00,,,0.00,Wunderground v.1.15,2013-12-11 19:49:00,
2013-12-11 14:54:00,43.6,24.2,30.39,ESE,108,1.0,3.0,46,0.00,,,0.00,Wunderground v.1.15,2013-12-11 19:54:00,
2013-12-11 14:59:00,43.6,24.2,30.39,ESE,108,1.0,3.0,46,0.00,,,0.00,Wunderground v.1.15,2013-12-11 19:59:00,
2013-12-11 15:05:00,43.9,23.4,30.39,East,97,1.0,4.0,44,0.00,,,0.00,Wunderground v.1.15,2013-12-11 20:05:00,
2013-12-11 15:11:00,44.1,24.1,30.39,East,96,1.0,1.0,45,0.00,,,0.00,Wunderground v.1.15,2013-12-11 20:11:00,
2013-12-11 15:16:00,44.5,24.5,30.39,East,101,0.0,2.0,45,0.00,,,0.00,Wunderground v.1.15,2013-12-11 20:16:00,
2013-12-11 15:21:00,44.1,23.6,30.39,ESE,105,1.0,2.0,44,0.00,,,0.00,Wunderground v.1.15,2013-12-11 20:21:00,
2013-12-11 15:27:00,44.2,24.2,30.38,ESE,105,1.0,2.0,45,0.00,,,0.00,Wunderground v.1.15,2013-12-11 20:27:00,
2013-12-11 15:32:00,44.2,24.7,30.38,ESE,105,1.0,4.0,46,0.00,,,0.00,Wunderground v.1.15,2013-12-11 20:32:00,
2013-12-11 15:38:00,44.3,24.3,30.38,East,95,1.0,4.0,45,0.00,,,0.00,Wunderground v.1.15,2013-12-11 20:38:00,
2013-12-11 15:43:00,44.3,24.3,30.38,East,97,0.0,3.0,45,0.00,,,0.00,Wunderground v.1.15,2013-12-11 20:43:00,
2013-12-11 15:48:00,44.2,23.6,30.38,East,97,1.0,3.0,44,0.00,,,0.00,Wunderground v.1.15,2013-12-11 20:48:00,
2013-12-11 15:54:00,43.9,23.4,30.38,East,101,1.0,2.0,44,0.00,,,0.00,Wunderground v.1.15,2013-12-11 20:54:00,
2013-12-11 16:00:00,43.6,23.6,30.38,East,101,1.0,1.0,45,0.00,,,0.00,Wunderground v.1.15,2013-12-11 21:00:00,
2013-12-11 16:05:00,43.6,23.6,30.38,East,101,0.0,1.0,45,0.00,,,0.00,Wunderground v.1.15,2013-12-11 21:05:00,
2013-12-11 16:10:00,43.6,24.2,30.38,East,101,0.0,0.0,46,0.00,,,0.00,Wunderground v.1.15,2013-12-11 21:10:00,
2013-12-11 16:16:00,43.5,23.5,30.38,East,101,0.0,3.0,45,0.00,,,0.00,Wunderground v.1.15,2013-12-11 21:16:00,
2013-12-11 16:21:00,43.5,24.1,30.38,East,101,0.0,0.0,46,0.00,,,0.00,Wunderground v.1.15,2013-12-11 21:21:00,
2013-12-11 16:27:00,43.3,23.9,30.39,East,101,0.0,0.0,46,0.00,,,0.00,Wunderground v.1.15,2013-12-11 21:27:00,
2013-12-11 16:32:00,43.5,24.1,30.39,East,101,0.0,0.0,46,0.00,,,0.00,Wunderground v.1.15,2013-12-11 21:32:00,
2013-12-11 16:38:00,43.6,24.7,30.39,East,101,0.0,0.0,47,0.00,,,0.00,Wunderground v.1.15,2013-12-11 21:38:00,
2013-12-11 16:43:00,43.8,24.3,30.39,East,101,0.0,0.0,46,0.00,,,0.00,Wunderground v.1.15,2013-12-11 21:43:00,
2013-12-11 16:49:00,43.8,25.4,30.39,East,101,0.0,0.0,48,0.00,,,0.00,Wunderground v.1.15,2013-12-11 21:49:00,
2013-12-11 16:55:00,43.6,26.2,30.39,East,101,0.0,0.0,50,0.00,,,0.00,Wunderground v.1.15,2013-12-11 21:55:00,
2013-12-11 17:01:00,43.5,27.0,30.39,East,101,0.0,0.0,52,0.00,,,0.00,Wunderground v.1.15,2013-12-11 22:01:00,
2013-12-11 17:07:00,43.3,24.4,30.40,East,101,0.0,0.0,47,0.00,,,0.00,Wunderground v.1.15,2013-12-11 22:07:00,
2013-12-11 17:12:00,43.3,24.4,30.40,East,101,0.0,0.0,47,0.00,,,0.00,Wunderground v.1.15,2013-12-11 22:12:00,
2013-12-11 17:17:00,43.3,23.4,30.40,East,101,0.0,0.0,45,0.00,,,0.00,Wunderground v.1.15,2013-12-11 22:17:00,
2013-12-11 17:23:00,43.3,21.1,30.40,ESE,105,0.0,0.0,41,0.00,,,0.00,Wunderground v.1.15,2013-12-11 22:23:00,
2013-12-11 17:28:00,43.3,21.1,30.40,ESE,105,0.0,0.0,41,0.00,,,0.00,Wunderground v.1.15,2013-12-11 22:28:00,
2013-12-11 17:34:00,43.3,21.1,30.40,ESE,105,0.0,0.0,41,0.00,,,0.00,Wunderground v.1.15,2013-12-11 22:34:00,
2013-12-11 17:39:00,43.3,20.0,30.40,ESE,105,0.0,0.0,39,0.00,,,0.00,Wunderground v.1.15,2013-12-11 22:39:00,
2013-12-11 17:45:00,43.2,20.5,30.40,ESE,105,0.0,0.0,40,0.00,,,0.00,Wunderground v.1.15,2013-12-11 22:45:00,
2013-12-11 17:50:00,43.2,20.5,30.40,ESE,105,0.0,0.0,40,0.00,,,0.00,Wunderground v.1.15,2013-12-11 22:50:00,
2013-12-11 17:56:00,43.1,19.8,30.42,ESE,105,0.0,0.0,39,0.00,,,0.00,Wunderground v.1.15,2013-12-11 22:56:00,
2013-12-11 18:01:00,42.9,19.6,30.42,ESE,105,0.0,0.0,39,0.00,,,0.00,Wunderground v.1.15,2013-12-11 23:01:00,
2013-12-11 18:07:00,42.6,19.9,30.42,ESE,105,0.0,0.0,40,0.00,,,0.00,Wunderground v.1.15,2013-12-11 23:07:00,
2013-12-11 18:12:00,42.3,20.8,30.42,ESE,105,0.0,0.0,42,0.00,,,0.00,Wunderground v.1.15,2013-12-11 23:12:00,
2013-12-11 18:18:00,42.1,22.3,30.42,ESE,105,0.0,0.0,45,0.00,,,0.00,Wunderground v.1.15,2013-12-11 23:18:00,
2013-12-11 18:23:00,41.9,21.0,30.42,ESE,105,0.0,0.0,43,0.00,,,0.00,Wunderground v.1.15,2013-12-11 23:23:00,
2013-12-11 18:28:00,41.9,20.4,30.42,SE,129,0.0,1.0,42,0.00,,,0.00,Wunderground v.1.15,2013-12-11 23:28:00,
2013-12-11 18:34:00,41.8,19.8,30.42,WSW,253,1.0,3.0,41,0.00,,,0.00,Wunderground v.1.15,2013-12-11 23:34:00,
2013-12-11 18:39:00,41.6,20.7,30.42,WSW,255,1.0,3.0,43,0.00,,,0.00,Wunderground v.1.15,2013-12-11 23:39:00,
2013-12-11 18:45:00,41.2,20.4,30.42,WSW,255,1.0,3.0,43,0.00,,,0.00,Wunderground v.1.15,2013-12-11 23:45:00,
2013-12-11 18:50:00,41.1,19.7,30.42,West,268,1.0,1.0,42,0.00,,,0.00,Wunderground v.1.15,2013-12-11 23:50:00,
2013-12-11 18:56:00,40.8,20.0,30.42,West,268,1.0,2.0,43,0.00,,,0.00,Wunderground v.1.15,2013-12-11 23:56:00,
2013-12-11 19:01:00,40.5,20.8,30.42,West,268,0.0,0.0,45,0.00,,,0.00,Wunderground v.1.15,2013-12-12 00:01:00,
2013-12-11 19:07:00,40.1,21.5,30.42,West,268,0.0,0.0,47,0.00,,,0.00,Wunderground v.1.15,2013-12-12 00:07:00,
2013-12-11 19:13:00,39.6,21.0,30.42,West,268,0.0,0.0,47,0.00,,,0.00,Wunderground v.1.15,2013-12-12 00:13:00,
2013-12-11 19:19:00,39.3,21.2,30.42,West,268,0.0,4.0,48,0.00,,,0.00,Wunderground v.1.15,2013-12-12 00:19:00,
2013-12-11 19:25:00,39.2,21.1,30.43,West,268,0.0,0.0,48,0.00,,,0.00,Wunderground v.1.15,2013-12-12 00:25:00,
2013-12-11 19:30:00,38.8,20.8,30.43,West,268,0.0,0.0,48,0.00,,,0.00,Wunderground v.1.15,2013-12-12 00:30:00,
2013-12-11 19:36:00,38.8,22.7,30.43,West,268,0.0,0.0,52,0.00,,,0.00,Wunderground v.1.15,2013-12-12 00:36:00,
2013-12-11 19:41:00,38.6,21.5,30.44,West,268,0.0,2.0,50,0.00,,,0.00,Wunderground v.1.15,2013-12-12 00:41:00,
2013-12-11 19:47:00,38.6,21.5,30.44,West,268,0.0,2.0,50,0.00,,,0.00,Wunderground v.1.15,2013-12-12 00:47:00,
2013-12-11 19:52:00,38.5,21.9,30.44,West,268,0.0,0.0,51,0.00,,,0.00,Wunderground v.1.15,2013-12-12 00:52:00,
2013-12-11 19:58:00,38.2,22.6,30.44,West,268,0.0,2.0,53,0.00,,,0.00,Wunderground v.1.15,2013-12-12 00:58:00,
2013-12-11 20:03:00,38.0,22.8,30.44,WNW,286,1.0,1.0,54,0.00,,,0.00,Wunderground v.1.15,2013-12-12 01:03:00,
2013-12-11 20:08:00,37.9,23.2,30.44,WNW,286,0.0,1.0,55,0.00,,,0.00,Wunderground v.1.15,2013-12-12 01:08:00,
2013-12-11 20:14:00,37.6,23.3,30.44,WNW,289,0.0,3.0,56,0.00,,,0.00,Wunderground v.1.15,2013-12-12 01:14:00,
2013-12-11 20:20:00,37.5,22.3,30.44,WNW,282,0.0,0.0,54,0.00,,,0.00,Wunderground v.1.15,2013-12-12 01:20:00,
2013-12-11 20:26:00,37.3,22.2,30.45,WNW,282,0.0,0.0,54,0.00,,,0.00,Wunderground v.1.15,2013-12-12 01:26:00,
2013-12-11 20:31:00,37.2,22.1,30.45,WNW,282,0.0,0.0,54,0.00,,,0.00,Wunderground v.1.15,2013-12-12 01:31:00,
2013-12-11 20:37:00,36.8,22.6,30.45,WNW,282,0.0,0.0,56,0.00,,,0.00,Wunderground v.1.15,2013-12-12 01:37:00,
2013-12-11 20:42:00,36.5,22.7,30.45,WNW,282,0.0,0.0,57,0.00,,,0.00,Wunderground v.1.15,2013-12-12 01:42:00,
2013-12-11 20:48:00,36.2,22.4,30.45,WNW,282,0.0,2.0,57,0.00,,,0.00,Wunderground v.1.15,2013-12-12 01:48:00,
2013-12-11 20:53:00,36.2,23.2,30.44,WNW,282,0.0,0.0,59,0.00,,,0.00,Wunderground v.1.15,2013-12-12 01:53:00,
2013-12-11 20:59:00,35.9,23.0,30.44,WNW,282,0.0,0.0,59,0.00,,,0.00,Wunderground v.1.15,2013-12-12 01:59:00,
2013-12-11 21:04:00,35.6,23.5,30.44,WNW,282,0.0,2.0,61,0.00,,,0.00,Wunderground v.1.15,2013-12-12 02:04:00,
2013-12-11 21:10:00,35.3,23.2,30.44,WNW,282,1.0,1.0,61,0.00,,,0.00,Wunderground v.1.15,2013-12-12 02:10:00,
2013-12-11 21:15:00,35.3,22.8,30.44,WNW,282,2.0,3.0,60,0.00,,,0.00,Wunderground v.1.15,2013-12-12 02:15:00,
2013-12-11 21:21:00,35.2,23.5,30.44,WNW,282,2.0,2.0,62,0.00,,,0.00,Wunderground v.1.15,2013-12-12 02:21:00,
2013-12-11 21:26:00,35.2,23.1,30.44,WNW,282,1.0,5.0,61,0.00,,,0.00,Wunderground v.1.15,2013-12-12 02:26:00,
2013-12-11 21:32:00,35.2,22.3,30.44,West,281,2.0,4.0,59,0.00,,,0.00,Wunderground v.1.15,2013-12-12 02:32:00,
2013-12-11 21:37:00,35.0,22.9,30.44,West,281,1.0,4.0,61,0.00,,,0.00,Wunderground v.1.15,2013-12-12 02:37:00,
2013-12-11 21:43:00,34.9,22.4,30.44,West,281,0.0,2.0,60,0.00,,,0.00,Wunderground v.1.15,2013-12-12 02:43:00,
2013-12-11 21:48:00,34.6,22.5,30.44,West,281,1.0,3.0,61,0.00,,,0.00,Wunderground v.1.15,2013-12-12 02:48:00,
2013-12-11 21:54:00,34.4,21.9,30.43,West,281,2.0,3.0,60,0.00,,,0.00,Wunderground v.1.15,2013-12-12 02:54:00,
2013-12-11 21:59:00,34.6,22.5,30.43,West,281,1.0,3.0,61,0.00,,,0.00,Wunderground v.1.15,2013-12-12 02:59:00,
2013-12-11 22:05:00,34.6,21.7,30.43,West,281,0.0,1.0,59,0.00,,,0.00,Wunderground v.1.15,2013-12-12 03:05:00,
2013-12-11 22:10:00,34.6,21.7,30.43,West,281,0.0,0.0,59,0.00,,,0.00,Wunderground v.1.15,2013-12-12 03:10:00,
2013-12-11 22:16:00,34.6,21.7,30.43,West,281,0.0,0.0,59,0.00,,,0.00,Wunderground v.1.15,2013-12-12 03:16:00,
2013-12-11 22:21:00,34.6,21.7,30.43,West,281,0.0,0.0,59,0.00,,,0.00,Wunderground v.1.15,2013-12-12 03:21:00,
2013-12-11 22:27:00,34.4,21.9,30.43,West,281,0.0,0.0,60,0.00,,,0.00,Wunderground v.1.15,2013-12-12 03:27:00,
2013-12-11 22:32:00,34.4,21.9,30.43,NW,305,1.0,7.0,60,0.00,,,0.00,Wunderground v.1.15,2013-12-12 03:32:00,
2013-12-11 22:38:00,34.3,22.2,30.44,NW,305,2.0,7.0,61,0.00,,,0.00,Wunderground v.1.15,2013-12-12 03:38:00,
2013-12-11 22:44:00,34.0,22.3,30.44,WNW,298,1.0,5.0,62,0.00,,,0.00,Wunderground v.1.15,2013-12-12 03:44:00,
2013-12-11 22:49:00,33.8,22.9,30.44,NW,307,2.0,5.0,64,0.00,,,0.00,Wunderground v.1.15,2013-12-12 03:49:00,
2013-12-11 22:55:00,33.4,22.9,30.44,WNW,291,2.0,3.0,65,0.00,,,0.00,Wunderground v.1.15,2013-12-12 03:55:00,
2013-12-11 23:00:00,33.2,22.7,30.44,West,276,2.0,4.0,65,0.00,,,0.00,Wunderground v.1.15,2013-12-12 04:00:00,
2013-12-11 23:05:00,32.9,22.8,30.44,WNW,290,2.0,7.0,66,0.00,,,0.00,Wunderground v.1.15,2013-12-12 04:05:00,
2013-12-11 23:11:00,32.8,22.7,30.44,West,270,2.0,2.0,66,0.00,,,0.00,Wunderground v.1.15,2013-12-12 04:11:00,
2013-12-11 23:17:00,32.5,22.8,30.44,NW,305,1.0,2.0,67,0.00,,,0.00,Wunderground v.1.15,2013-12-12 04:17:00,
2013-12-11 23:22:00,32.4,22.7,30.44,West,279,1.0,1.0,67,0.00,,,0.00,Wunderground v.1.15,2013-12-12 04:22:00,
2013-12-11 23:27:00,32.2,22.8,30.44,NW,307,1.0,2.0,68,0.00,,,0.00,Wunderground v.1.15,2013-12-12 04:27:00,
2013-12-11 23:33:00,32.1,22.7,30.44,NW,304,0.0,0.0,68,0.00,,,0.00,Wunderground v.1.15,2013-12-12 04:33:00,
2013-12-11 23:39:00,31.9,22.9,30.44,WNW,293,0.0,1.0,69,0.00,,,0.00,Wunderground v.1.15,2013-12-12 04:39:00,
2013-12-11 23:44:00,31.9,22.9,30.44,West,277,2.0,6.0,69,0.00,,,0.00,Wunderground v.1.15,2013-12-12 04:44:00,
2013-12-11 23:49:00,31.8,23.1,30.44,WNW,302,2.0,6.0,70,0.00,,,0.00,Wunderground v.1.15,2013-12-12 04:49:00,
2013-12-11 23:55:00,31.6,22.9,30.44,NNW,330,1.0,2.0,70,0.00,,,0.00,Wunderground v.1.15,2013-12-12 04:55:00,